Time;durP1;ratioP1;P1;durP2;ratioP2;P2;SDS_P1;SDS_P2;PMS_P1;PMS_P2;Temp;Humidity;BMP_temperature;BMP_pressure;BME280_temperature;BME280_humidity;BME280_pressure;Samples;Min_cycle;Max_cycle;Signal;HPM_P1;HPM_P2
2021/01/08 00:04:49;;;;;;;0.70;0.70;;;;;;;-0.82;83.88;96506.53;299395;227;63009;-48
2021/01/08 00:09:54;;;;;;;0.80;0.80;;;;;;;-0.81;83.28;96502.81;299395;230;63004;-48
2021/01/08 00:14:54;;;;;;;0.80;0.80;;;;;;;-0.72;82.79;96501.44;299417;350;63009;-48
2021/01/08 00:19:57;;;;;;;0.80;0.80;;;;;;;-0.71;83.03;96500.41;299395;272;63005;-50
2021/01/08 00:24:58;;;;;;;0.77;0.77;;;;;;;-0.79;83.58;96502.59;299395;247;63009;-48
2021/01/08 00:30:01;;;;;;;0.80;0.80;;;;;;;-0.72;82.84;96501.44;299395;227;63012;-48
2021/01/08 00:35:02;;;;;;;0.80;0.80;;;;;;;-0.74;83.44;96500.84;299395;204;63009;-48
2021/01/08 00:40:05;;;;;;;0.70;0.70;;;;;;;-0.70;83.12;96503.88;299395;215;63004;-51
2021/01/08 00:45:07;;;;;;;0.80;0.80;;;;;;;-0.67;82.90;96498.88;299395;262;63009;-48
2021/01/08 00:50:09;;;;;;;0.80;0.80;;;;;;;-0.68;83.52;96496.44;299395;204;63005;-51
2021/01/08 00:55:11;;;;;;;0.80;0.80;;;;;;;-0.68;83.13;96502.56;299395;311;63009;-51
2021/01/08 01:00:16;;;;;;;0.70;0.70;;;;;;;-0.44;82.23;96507.91;299395;197;63005;-50
2021/01/08 01:05:17;;;;;;;0.85;0.85;;;;;;;-0.52;80.94;96510.94;299395;208;63009;-47
2021/01/08 01:10:18;;;;;;;0.70;0.70;;;;;;;-0.61;82.01;96506.97;299395;202;63004;-52
2021/01/08 01:15:21;;;;;;;0.70;0.70;;;;;;;-0.52;81.47;96510.94;299395;354;63009;-48
2021/01/08 01:20:25;;;;;;;0.80;0.80;;;;;;;-0.59;81.11;96516.38;299395;244;63005;-46
2021/01/08 01:25:26;;;;;;;0.80;0.80;;;;;;;-0.61;80.71;96520.31;299417;347;63022;-48
2021/01/08 01:30:31;;;;;;;0.70;0.70;;;;;;;-0.69;81.48;96522.25;299395;212;63005;-52
2021/01/08 01:35:33;;;;;;;0.80;0.80;;;;;;;-0.70;81.06;96520.66;299395;198;63009;-48
2021/01/08 01:40:36;;;;;;;0.80;0.80;;;;;;;-0.89;82.45;96524.44;299395;219;63004;-48
2021/01/08 01:45:37;;;;;;;0.70;0.70;;;;;;;-0.96;82.67;96526.41;299395;340;63009;-47
2021/01/08 01:50:40;;;;;;;0.80;0.80;;;;;;;-1.13;83.02;96530.78;299395;216;63005;-51
2021/01/08 01:55:43;;;;;;;0.80;0.80;;;;;;;-1.13;82.75;96536.91;299395;333;63008;-48
2021/01/08 02:00:44;;;;;;;0.80;0.80;;;;;;;-0.87;80.49;96533.03;299395;230;63019;-48
2021/01/08 02:05:49;;;;;;;0.80;0.80;;;;;;;-0.98;80.86;96539.13;299395;205;63025;-48
2021/01/08 02:11:23;;;;;;;0.80;0.80;;;;;;;-0.93;80.31;96541.13;299417;221;63004;-48
2021/01/08 02:16:27;;;;;;;0.80;0.80;;;;;;;-0.93;80.51;96536.59;299395;207;63018;-48
2021/01/08 02:21:51;;;;;;;0.80;0.80;;;;;;;-0.96;80.13;96537.06;299417;543;63011;-48
2021/01/08 02:26:53;;;;;;;0.95;0.95;;;;;;;-0.89;79.66;96534.28;299395;215;63009;-49
2021/01/08 02:31:57;;;;;;;0.80;0.80;;;;;;;-0.75;79.07;96523.22;299395;397;63004;-48
2021/01/08 02:36:59;;;;;;;0.70;0.70;;;;;;;-0.92;80.86;96532.91;299439;196;63017;-53
2021/01/08 02:42:02;;;;;;;0.80;0.80;;;;;;;-0.85;79.60;96517.63;299395;208;63005;-48
2021/01/08 02:47:02;;;;;;;0.70;0.70;;;;;;;-0.83;79.81;96523.53;299395;233;63009;-48
2021/01/08 02:52:06;;;;;;;0.70;0.70;;;;;;;-0.85;80.12;96516.81;299395;220;63005;-48
2021/01/08 02:57:09;;;;;;;0.80;0.80;;;;;;;-0.96;81.46;96526.41;299417;215;63009;-48
2021/01/08 03:02:11;;;;;;;0.80;0.80;;;;;;;-0.98;81.34;96522.34;299395;342;63004;-47
2021/01/08 03:07:13;;;;;;;0.80;0.80;;;;;;;-0.95;80.96;96528.03;299395;202;63009;-48
2021/01/08 03:12:15;;;;;;;0.80;0.80;;;;;;;-0.93;80.78;96514.47;299395;222;63009;-48
2021/01/08 03:17:16;;;;;;;0.80;0.80;;;;;;;-0.91;81.31;96507.88;299395;229;63009;-52
2021/01/08 03:22:17;;;;;;;0.80;0.80;;;;;;;-0.99;81.60;96507.41;299395;228;63005;-47
2021/01/08 03:27:21;;;;;;;0.80;0.80;;;;;;;-0.97;81.65;96508.81;299395;235;63009;-48
2021/01/08 03:32:22;;;;;;;0.80;0.80;;;;;;;-0.93;80.72;96499.31;299417;218;63004;-47
2021/01/08 03:37:23;;;;;;;0.80;0.80;;;;;;;-1.00;81.36;96509.25;299395;271;63018;-47
2021/01/08 03:42:24;;;;;;;0.80;0.80;;;;;;;-1.02;81.43;96511.34;299395;231;63005;-48
2021/01/08 03:47:25;;;;;;;0.80;0.80;;;;;;;-1.03;81.91;96509.72;299395;309;63009;-53
2021/01/08 03:52:27;;;;;;;0.80;0.80;;;;;;;-1.06;81.82;96504.88;299395;214;63004;-50
2021/01/08 03:57:28;;;;;;;0.80;0.80;;;;;;;-1.14;82.39;96502.53;299395;221;63009;-48
2021/01/08 04:02:28;;;;;;;0.80;0.80;;;;;;;-1.12;83.04;96503.13;299395;345;63004;-48
2021/01/08 04:07:29;;;;;;;0.73;0.73;;;;;;;-1.13;83.09;96504.97;299395;219;63009;-48
2021/01/08 04:12:31;;;;;;;0.80;0.80;;;;;;;-1.15;83.13;96506.22;299395;213;63005;-48
2021/01/08 04:17:33;;;;;;;0.80;0.80;;;;;;;-1.08;82.94;96493.63;299395;222;63018;-48
2021/01/08 04:22:35;;;;;;;0.80;0.80;;;;;;;-0.98;82.35;96493.06;299395;303;63004;-48
2021/01/08 04:27:36;;;;;;;0.80;0.80;;;;;;;-0.83;80.82;96496.91;299395;220;63009;-46
2021/01/08 04:32:37;;;;;;;0.80;0.80;;;;;;;-0.96;81.27;96499.78;299395;206;63004;-47
2021/01/08 04:37:38;;;;;;;0.80;0.80;;;;;;;-1.01;81.28;96496.97;299395;341;63016;-47
2021/01/08 04:42:39;;;;;;;0.80;0.80;;;;;;;-1.01;81.93;96489.00;299395;434;63005;-48
2021/01/08 04:47:41;;;;;;;0.80;0.80;;;;;;;-1.05;82.50;96495.84;299395;292;63008;-47
2021/01/08 04:52:46;;;;;;;0.70;0.70;;;;;;;-1.02;82.33;96485.53;299395;196;63009;-52
2021/01/08 04:57:50;;;;;;;0.80;0.80;;;;;;;-1.05;82.72;96485.19;299395;204;63009;-47
2021/01/08 05:02:55;;;;;;;0.80;0.80;;;;;;;-0.98;81.89;96479.72;299439;226;63004;-47
2021/01/08 05:07:57;;;;;;;;;;;;;;;-1.08;82.63;96497.13;299996;982;6004;-47
2021/01/08 05:12:58;;;;;;;0.80;0.80;;;;;;;-1.16;82.57;96492.12;299400;212;63024;-47
2021/01/08 05:18:02;;;;;;;0.80;0.80;;;;;;;-1.07;82.11;96485.44;299395;215;63005;-46
2021/01/08 05:23:04;;;;;;;0.80;0.80;;;;;;;-1.06;82.00;96492.38;299417;230;63009;-47
2021/01/08 05:28:06;;;;;;;0.80;0.80;;;;;;;-1.13;82.27;96488.19;299395;233;63005;-48
2021/01/08 05:33:07;;;;;;;0.80;0.80;;;;;;;-1.09;81.92;96476.03;299395;204;63009;-47
2021/01/08 05:38:09;;;;;;;0.80;0.80;;;;;;;-1.13;82.22;96482.84;299395;216;63004;-47
2021/01/08 05:43:12;;;;;;;0.80;0.80;;;;;;;-1.15;82.12;96487.59;299395;199;63009;-48
2021/01/08 05:48:14;;;;;;;0.77;0.77;;;;;;;-1.12;81.88;96495.13;299394;243;64025;-48
2021/01/08 05:53:19;;;;;;;0.80;0.80;;;;;;;-1.18;81.94;96496.84;299395;197;63009;-48
2021/01/08 05:58:20;;;;;;;;;;;;;;;-1.17;82.74;96500.31;299996;983;6000;-48
2021/01/08 06:03:22;;;;;;;0.80;0.80;;;;;;;-1.15;82.39;96500.91;299400;222;63005;-48
2021/01/08 06:08:26;;;;;;;0.80;0.80;;;;;;;-1.11;82.56;96507.41;299395;316;63009;-48
2021/01/08 06:13:34;;;;;;;0.80;0.80;;;;;;;-1.04;81.86;96508.13;299395;205;63005;-48
2021/01/08 06:18:37;;;;;;;0.80;0.80;;;;;;;-1.17;82.51;96509.13;299395;224;63009;-47
2021/01/08 06:23:41;;;;;;;0.80;0.80;;;;;;;-0.99;81.34;96515.41;299395;219;63004;-48
2021/01/08 06:28:52;;;;;;;0.80;0.80;;;;;;;-0.82;79.93;96506.53;299395;232;63009;-48
2021/01/08 06:34:01;;;;;;;0.80;0.80;;;;;;;-0.87;80.87;96508.25;299395;224;63005;-48
2021/01/08 06:39:09;;;;;;;0.70;0.70;;;;;;;-0.76;80.55;96515.44;299395;227;63008;-48
2021/01/08 06:44:22;;;;;;;0.80;0.80;;;;;;;-0.85;80.86;96512.31;299395;230;63004;-48
2021/01/08 06:49:24;;;;;;;0.80;0.80;;;;;;;-0.91;81.63;96515.88;299395;255;63009;-48
2021/01/08 06:54:27;;;;;;;0.80;0.80;;;;;;;-0.74;80.22;96524.84;299395;213;63004;-47
2021/01/08 06:59:33;;;;;;;0.75;0.75;;;;;;;-0.46;78.69;96526.00;299395;285;63009;-48
2021/01/08 07:04:38;;;;;;;0.80;0.80;;;;;;;-0.64;79.31;96523.44;299395;222;63005;-47
2021/01/08 07:09:40;;;;;;;0.80;0.80;;;;;;;-0.81;81.16;96534.78;299395;227;63009;-48
2021/01/08 07:14:42;;;;;;;0.75;0.75;;;;;;;-0.74;80.05;96535.50;299395;215;63004;-47
2021/01/08 07:19:44;;;;;;;0.80;0.80;;;;;;;-0.84;80.71;96543.22;299395;202;63009;-47
2021/01/08 07:24:49;;;;;;;0.70;0.70;;;;;;;-0.70;80.08;96541.97;299395;306;63005;-48
2021/01/08 07:29:54;;;;;;;;;;;;;;;-0.83;80.86;96547.50;299996;982;6004;-47
2021/01/08 07:34:55;;;;;;;0.80;0.80;;;;;;;-0.85;81.33;96549.59;299422;224;63009;-47
2021/01/08 07:40:04;;;;;;;0.80;0.80;;;;;;;-0.81;81.05;96553.44;299394;330;64005;-54
2021/01/08 07:45:07;;;;;;;0.80;0.80;;;;;;;-0.83;81.24;96542.19;299395;207;63009;-48
2021/01/08 07:50:12;;;;;;;0.80;0.80;;;;;;;-0.69;80.59;96551.56;299395;216;63005;-47
2021/01/08 07:55:33;;;;;;;0.80;0.80;;;;;;;-0.70;80.95;96560.62;299395;216;63009;-47
2021/01/08 08:00:35;;;;;;;0.80;0.80;;;;;;;-0.35;78.58;96565.19;299395;255;63004;-49
2021/01/08 08:05:36;;;;;;;0.70;0.70;;;;;;;-0.59;80.06;96566.19;299395;346;63009;-47
2021/01/08 08:10:37;;;;;;;0.70;0.70;;;;;;;-0.37;78.63;96572.59;299395;199;63005;-48
2021/01/08 08:15:48;;;;;;;0.80;0.80;;;;;;;-0.40;78.59;96578.37;299395;205;63008;-48
2021/01/08 08:20:49;;;;;;;0.80;0.80;;;;;;;-0.52;79.17;96585.56;299395;202;63004;-48
2021/01/08 08:25:57;;;;;;;0.80;0.80;;;;;;;-0.50;79.25;96589.59;299395;259;63009;-48
2021/01/08 08:31:01;;;;;;;0.90;0.90;;;;;;;-0.33;79.12;96589.72;299395;229;63004;-54
2021/01/08 08:36:03;;;;;;;0.80;0.80;;;;;;;-0.54;79.57;96599.09;299417;220;63022;-47
2021/01/08 08:41:13;;;;;;;0.80;0.80;;;;;;;-0.44;79.23;96604.69;299395;232;63005;-48
2021/01/08 08:46:15;;;;;;;0.77;0.77;;;;;;;-0.44;79.29;96614.53;299395;219;63008;-47
2021/01/08 08:51:23;;;;;;;0.77;0.77;;;;;;;-0.28;79.02;96618.34;299395;247;63004;-49
2021/01/08 08:56:25;;;;;;;0.80;0.80;;;;;;;-0.56;80.66;96613.69;299395;342;63009;-47
2021/01/08 09:01:39;;;;;;;1.15;1.15;;;;;;;-0.36;79.58;96627.53;299395;314;63005;-48
2021/01/08 09:06:45;;;;;;;0.80;0.80;;;;;;;-0.60;81.04;96625.84;299417;416;125009;-50
2021/01/08 09:12:05;;;;;;;0.80;0.80;;;;;;;-0.32;79.16;96622.53;299395;229;63005;-48
2021/01/08 09:17:14;;;;;;;0.70;0.70;;;;;;;-0.34;79.82;96625.41;299395;222;63009;-48
2021/01/08 09:22:16;;;;;;;0.70;0.70;;;;;;;-0.36;79.55;96623.00;299395;198;63004;-47
2021/01/08 09:27:18;;;;;;;0.80;0.80;;;;;;;-0.39;79.34;96626.13;299395;202;63009;-47
2021/01/08 09:32:32;;;;;;;0.80;0.80;;;;;;;-0.26;79.35;96627.75;299395;224;63005;-47
2021/01/08 09:37:39;;;;;;;0.80;0.80;;;;;;;-0.11;78.67;96619.31;299418;377;63008;-49
2021/01/08 09:42:41;;;;;;;0.80;0.80;;;;;;;-0.36;79.86;96632.87;299396;377;63004;-48
2021/01/08 09:47:45;;;;;;;0.80;0.80;;;;;;;-0.17;78.76;96626.38;299396;196;63009;-47
2021/01/08 09:52:48;;;;;;;0.80;0.80;;;;;;;0.04;77.18;96622.31;299418;206;63004;-48
2021/01/08 09:58:01;;;;;;;0.80;0.80;;;;;;;-0.07;79.43;96631.94;299396;268;63009;-49
2021/01/08 10:03:04;;;;;;;0.70;0.70;;;;;;;-0.02;78.01;96640.06;299396;202;63005;-49
2021/01/08 10:08:05;;;;;;;0.88;0.88;;;;;;;-0.09;78.06;96636.72;299396;213;63008;-47
2021/01/08 10:13:14;;;;;;;0.70;0.70;;;;;;;0.11;76.07;96639.00;299396;220;63004;-48
2021/01/08 10:18:35;;;;;;;0.93;0.93;;;;;;;0.42;73.29;96629.81;299396;202;63009;-50
2021/01/08 10:23:41;;;;;;;0.70;0.70;;;;;;;0.10;74.99;96636.56;299397;225;63005;-47
2021/01/08 10:28:53;;;;;;;0.80;0.80;;;;;;;0.33;73.82;96641.91;299397;203;63009;-49
2021/01/08 10:33:59;;;;;;;0.80;0.80;;;;;;;0.08;75.33;96633.31;299396;271;63005;-49
2021/01/08 10:39:00;;;;;;;0.70;0.70;;;;;;;0.24;73.79;96637.97;299396;197;63009;-47
2021/01/08 10:44:01;;;;;;;0.73;0.73;;;;;;;0.22;73.39;96632.06;299395;203;64004;-49
2021/01/08 10:49:05;;;;;;;0.80;0.80;;;;;;;0.32;73.68;96626.94;299396;306;63009;-46
2021/01/08 10:54:06;;;;;;;0.80;0.80;;;;;;;0.44;72.41;96622.38;299418;211;63005;-48
2021/01/08 10:59:07;;;;;;;0.70;0.70;;;;;;;0.46;71.67;96611.47;299396;236;63013;-49
2021/01/08 11:04:09;;;;;;;0.80;0.80;;;;;;;0.40;72.50;96628.41;299396;249;63005;-50
2021/01/08 11:09:09;;;;;;;0.70;0.70;;;;;;;0.55;72.34;96612.72;299396;209;63009;-52
2021/01/08 11:14:14;;;;;;;0.70;0.70;;;;;;;0.56;72.05;96615.16;299396;215;63004;-51
2021/01/08 11:19:15;;;;;;;0.80;0.80;;;;;;;0.65;70.66;96608.41;299417;205;64013;-50
2021/01/08 11:24:15;;;;;;;0.70;0.70;;;;;;;0.69;70.05;96607.94;299395;269;63005;-53
2021/01/08 11:29:16;;;;;;;0.70;0.70;;;;;;;0.54;71.04;96600.44;299395;230;63008;-58
2021/01/08 11:34:17;;;;;;;0.80;0.80;;;;;;;0.52;70.67;96595.31;299395;205;63008;-50
2021/01/08 11:39:19;;;;;;;0.70;0.70;;;;;;;0.59;70.68;96604.00;299395;285;63019;-50
2021/01/08 11:44:21;;;;;;;0.70;0.70;;;;;;;0.79;68.82;96597.44;299395;210;63004;-52
2021/01/08 11:49:21;;;;;;;0.70;0.70;;;;;;;0.73;70.30;96603.72;299395;199;63009;-51
2021/01/08 11:54:24;;;;;;;0.70;0.70;;;;;;;0.80;69.51;96593.72;299395;225;63005;-49
2021/01/08 11:59:25;;;;;;;0.70;0.70;;;;;;;0.73;69.45;96603.72;299395;333;63008;-51
2021/01/08 12:04:26;;;;;;;0.95;0.95;;;;;;;0.74;69.43;96610.69;299395;233;63004;-51
2021/01/08 12:09:28;;;;;;;0.80;0.80;;;;;;;0.62;69.87;96608.06;299395;219;63009;-52
2021/01/08 12:14:30;;;;;;;0.70;0.70;;;;;;;0.57;69.75;96611.44;299395;204;63004;-50
2021/01/08 12:19:33;;;;;;;2.05;1.95;;;;;;;0.76;68.64;96613.94;299395;383;63009;-55
2021/01/08 12:24:34;;;;;;;0.70;0.70;;;;;;;0.56;68.06;96614.34;299395;322;63011;-50
2021/01/08 12:29:35;;;;;;;1.00;1.00;;;;;;;0.53;69.47;96615.63;299395;345;63008;-52
2021/01/08 12:34:36;;;;;;;0.70;0.70;;;;;;;0.41;69.18;96625.50;299395;345;63004;-54
2021/01/08 12:39:44;;;;;;;0.95;0.95;;;;;;;0.41;68.59;96622.84;299395;242;63009;-51
2021/01/08 12:44:45;;;;;;;0.70;0.70;;;;;;;0.25;70.31;96639.59;299395;372;63005;-62
2021/01/08 12:49:47;;;;;;;0.70;0.70;;;;;;;0.25;69.54;96629.72;299395;196;63009;-55
2021/01/08 12:54:48;;;;;;;0.70;0.70;;;;;;;-0.03;73.03;96627.78;299395;231;63005;-49
2021/01/08 12:59:49;;;;;;;0.80;0.80;;;;;;;0.13;72.00;96625.44;299395;317;63009;-48
2021/01/08 13:04:50;;;;;;;0.70;0.70;;;;;;;0.06;72.41;96614.88;299395;225;63004;-48
2021/01/08 13:09:51;;;;;;;0.70;0.70;;;;;;;0.20;71.27;96626.94;299395;267;63009;-49
2021/01/08 13:14:51;;;;;;;0.70;0.70;;;;;;;0.07;72.46;96615.69;299395;312;63005;-48
2021/01/08 13:19:56;;;;;;;0.70;0.70;;;;;;;0.10;72.50;96620.56;299395;238;63004;-47
2021/01/08 13:24:58;;;;;;;0.80;0.80;;;;;;;0.38;70.73;96623.31;299417;211;63005;-59
2021/01/08 13:29:59;;;;;;;0.80;0.80;;;;;;;0.09;71.92;96629.63;299395;215;63009;-48
2021/01/08 13:35:01;;;;;;;0.80;0.80;;;;;;;0.15;72.05;96634.03;299395;231;63012;-47
2021/01/08 13:40:10;;;;;;;0.70;0.70;;;;;;;0.17;71.82;96630.09;299395;250;63009;-47
2021/01/08 13:45:12;;;;;;;0.80;0.80;;;;;;;0.12;73.23;96637.16;299395;225;63005;-51
2021/01/08 13:50:13;;;;;;;0.70;0.70;;;;;;;0.50;70.25;96636.66;299395;329;63009;-50
2021/01/08 13:55:14;;;;;;;0.70;0.70;;;;;;;0.19;71.13;96643.19;299395;327;63019;-50
2021/01/08 14:00:16;;;;;;;0.98;0.98;;;;;;;0.10;71.40;96653.41;299395;222;63009;-50
2021/01/08 14:05:17;;;;;;;0.70;0.70;;;;;;;0.02;72.86;96664.41;299395;202;63004;-50
2021/01/08 14:10:19;;;;;;;0.70;0.70;;;;;;;0.20;71.44;96663.50;299395;202;63009;-50
2021/01/08 14:15:21;;;;;;;0.70;0.70;;;;;;;-0.08;73.24;96675.66;299395;214;63005;-51
2021/01/08 14:20:21;;;;;;;0.80;0.80;;;;;;;0.05;72.99;96681.81;299395;373;63008;-51
2021/01/08 14:25:23;;;;;;;0.90;0.90;;;;;;;-0.04;73.55;96676.84;299395;273;63011;-52
2021/01/08 14:30:24;;;;;;;0.70;0.70;;;;;;;0.11;73.05;96671.03;299395;215;63009;-51
2021/01/08 14:35:27;;;;;;;0.80;0.80;;;;;;;0.00;74.28;96680.63;299395;243;63004;-58
2021/01/08 14:40:28;;;;;;;0.80;0.80;;;;;;;0.02;73.68;96682.25;299479;339;125009;-52
2021/01/08 14:45:31;;;;;;;0.70;0.70;;;;;;;0.03;73.55;96684.69;299395;204;63005;-51
2021/01/08 14:50:32;;;;;;;0.80;0.80;;;;;;;0.12;73.11;96693.19;299395;202;63008;-51
2021/01/08 14:55:34;;;;;;;0.70;0.70;;;;;;;0.08;73.74;96686.69;299395;260;63004;-50
2021/01/08 15:00:37;;;;;;;0.80;0.80;;;;;;;0.00;74.52;96693.97;299395;225;63009;-50
2021/01/08 15:05:38;;;;;;;0.80;0.80;;;;;;;0.04;74.61;96701.53;299395;213;63004;-51
2021/01/08 15:10:39;;;;;;;0.80;0.80;;;;;;;-0.03;74.25;96707.81;299395;198;63009;-50
2021/01/08 15:15:40;;;;;;;0.80;0.80;;;;;;;-0.20;75.36;96706.03;299395;204;63005;-51
2021/01/08 15:21:05;;;;;;;0.80;0.80;;;;;;;-0.28;75.74;96704.50;299395;387;63008;-51
2021/01/08 15:26:07;;;;;;;0.90;0.90;;;;;;;-0.41;77.50;96715.37;299417;384;63004;-52
2021/01/08 15:31:09;;;;;;;0.80;0.80;;;;;;;-0.52;77.84;96716.13;299395;320;63009;-60
2021/01/08 15:36:13;;;;;;;0.80;0.80;;;;;;;-0.54;78.11;96727.03;299395;199;63005;-51
2021/01/08 15:41:15;;;;;;;0.80;0.80;;;;;;;-0.44;77.29;96729.16;299417;227;63009;-51
2021/01/08 15:46:17;;;;;;;0.80;0.80;;;;;;;-0.35;75.26;96735.78;299395;242;63005;-50
2021/01/08 15:51:27;;;;;;;0.80;0.80;;;;;;;-0.38;75.62;96738.91;299395;213;63009;-51
2021/01/08 15:56:31;;;;;;;0.80;0.80;;;;;;;-0.28;75.51;96741.81;299395;203;63004;-61
2021/01/08 16:01:32;;;;;;;0.80;0.80;;;;;;;-0.28;75.47;96746.34;299417;214;63009;-53
2021/01/08 16:06:33;;;;;;;0.70;0.70;;;;;;;-0.49;75.83;96755.66;299395;210;63005;-52
2021/01/08 16:11:34;;;;;;;0.80;0.80;;;;;;;-0.54;77.08;96753.69;299395;294;63009;-51
2021/01/08 16:16:36;;;;;;;0.80;0.80;;;;;;;-0.36;75.05;96747.50;299395;337;63005;-61
2021/01/08 16:21:40;;;;;;;0.80;0.80;;;;;;;-0.63;76.64;96755.03;299395;382;63009;-52
2021/01/08 16:26:45;;;;;;;0.80;0.80;;;;;;;-0.60;76.93;96759.09;299417;238;63004;-63
2021/01/08 16:31:54;;;;;;;0.77;0.77;;;;;;;-0.41;75.30;96763.34;299395;204;63009;-50
2021/01/08 16:36:57;;;;;;;0.70;0.70;;;;;;;-0.59;76.30;96771.38;299394;249;64009;-52
2021/01/08 16:41:59;;;;;;;0.80;0.80;;;;;;;-0.59;76.80;96782.03;299395;210;63008;-51
2021/01/08 16:47:03;;;;;;;0.70;0.70;;;;;;;-0.56;76.18;96786.91;299395;253;63004;-52
2021/01/08 16:52:05;;;;;;;0.80;0.80;;;;;;;-0.60;76.44;96793.72;299417;212;63009;-52
2021/01/08 16:57:06;;;;;;;0.80;0.80;;;;;;;-0.66;77.26;96792.78;299395;205;63004;-52
2021/01/08 17:02:08;;;;;;;0.80;0.80;;;;;;;-0.59;76.13;96792.69;299395;250;63009;-61
2021/01/08 17:07:09;;;;;;;0.80;0.80;;;;;;;-0.63;77.24;96797.66;299395;212;63005;-52
2021/01/08 17:12:10;;;;;;;0.70;0.70;;;;;;;-0.65;77.70;96804.25;299395;206;63008;-52
2021/01/08 17:17:11;;;;;;;0.80;0.80;;;;;;;-0.59;77.07;96798.03;299395;198;63004;-51
2021/01/08 17:22:13;;;;;;;0.80;0.80;;;;;;;-0.38;75.21;96794.91;299395;237;63009;-53
2021/01/08 17:27:16;;;;;;;0.80;0.80;;;;;;;-0.45;75.39;96799.50;299395;208;63005;-53
2021/01/08 17:32:17;;;;;;;0.93;0.93;;;;;;;-0.28;74.32;96803.12;299395;275;63009;-53
2021/01/08 17:37:18;;;;;;;0.70;0.70;;;;;;;-0.26;73.36;96808.25;299395;216;63005;-53
2021/01/08 17:42:21;;;;;;;0.80;0.80;;;;;;;-0.51;75.62;96813.72;299395;201;63009;-52
2021/01/08 17:47:22;;;;;;;0.80;0.80;;;;;;;-0.52;75.28;96820.09;299395;202;63004;-53
2021/01/08 17:52:24;;;;;;;0.80;0.80;;;;;;;-0.41;75.57;96819.34;299395;275;63009;-52
2021/01/08 17:57:26;;;;;;;0.70;0.70;;;;;;;-0.48;76.13;96822.06;299395;232;63013;-52
2021/01/08 18:02:26;;;;;;;0.80;0.80;;;;;;;-0.61;77.33;96824.09;299395;203;63009;-52
2021/01/08 18:07:28;;;;;;;0.80;0.80;;;;;;;-0.56;76.49;96834.88;299395;222;63005;-60
2021/01/08 18:12:28;;;;;;;0.80;0.80;;;;;;;-0.58;77.05;96831.63;299395;225;63008;-52
2021/01/08 18:17:29;;;;;;;0.80;0.80;;;;;;;-0.32;74.96;96827.81;299395;257;63004;-52
2021/01/08 18:22:36;;;;;;;0.80;0.80;;;;;;;-0.43;75.36;96832.06;299395;222;63009;-53
2021/01/08 18:27:40;;;;;;;0.75;0.75;;;;;;;-0.59;76.88;96835.34;299395;245;63005;-59
2021/01/08 18:32:41;;;;;;;0.80;0.80;;;;;;;-0.68;78.11;96832.97;299439;394;63009;-53
2021/01/08 18:37:42;;;;;;;0.80;0.80;;;;;;;-0.68;77.14;96848.94;299395;222;63005;-53
2021/01/08 18:42:43;;;;;;;1.42;1.42;;;;;;;-0.70;77.84;96850.25;299395;234;63009;-55
2021/01/08 18:47:47;;;;;;;0.80;0.80;;;;;;;-0.73;78.35;96862.16;299395;245;63004;-56
2021/01/08 18:52:49;;;;;;;0.80;0.80;;;;;;;-0.73;78.58;96845.34;299417;223;63009;-54
2021/01/08 18:57:51;;;;;;;0.80;0.80;;;;;;;-0.76;79.18;96851.13;299395;220;63020;-54
2021/01/08 19:02:53;;;;;;;0.80;0.80;;;;;;;-0.77;78.34;96855.63;299395;205;63009;-54
2021/01/08 19:07:54;;;;;;;0.80;0.80;;;;;;;-0.67;78.16;96863.91;299395;259;63005;-55
2021/01/08 19:12:59;;;;;;;0.80;0.80;;;;;;;-0.50;76.26;96871.31;299395;233;63009;-54
2021/01/08 19:18:01;;;;;;;0.80;0.80;;;;;;;-0.35;75.09;96858.44;299395;361;63004;-52
2021/01/08 19:23:05;;;;;;;0.70;0.70;;;;;;;-0.24;74.52;96860.31;299395;217;63009;-54
2021/01/08 19:28:08;;;;;;;0.80;0.80;;;;;;;-0.30;74.62;96868.37;299417;239;63005;-54
2021/01/08 19:33:10;;;;;;;0.80;0.80;;;;;;;-0.67;76.77;96871.91;299395;214;63008;-54
2021/01/08 19:38:13;;;;;;;0.80;0.80;;;;;;;-0.37;75.75;96871.16;299395;224;63004;-54
2021/01/08 19:43:28;;;;;;;0.80;0.80;;;;;;;-0.61;76.66;96877.38;299395;250;63009;-54
2021/01/08 19:48:36;;;;;;;0.80;0.80;;;;;;;-0.88;78.82;96885.66;299417;231;63004;-54
2021/01/08 19:53:38;;;;;;;0.70;0.70;;;;;;;-0.91;79.30;96885.28;299395;225;63009;-55
2021/01/08 19:58:50;;;;;;;0.80;0.80;;;;;;;-0.92;79.72;96889.00;299395;375;63005;-53
2021/01/08 20:03:50;;;;;;;0.80;0.80;;;;;;;-0.85;79.93;96890.56;299395;202;63008;-62
2021/01/08 20:08:52;;;;;;;0.80;0.80;;;;;;;-0.70;78.87;96888.34;299395;205;63004;-54
2021/01/08 20:13:54;;;;;;;0.80;0.80;;;;;;;-0.87;79.79;96895.28;299395;293;63009;-55
2021/01/08 20:18:57;;;;;;;0.73;0.73;;;;;;;-0.84;79.87;96902.84;299395;244;63004;-54
2021/01/08 20:24:02;;;;;;;0.80;0.80;;;;;;;-0.93;80.97;96904.16;299417;242;63009;-61
2021/01/08 20:29:06;;;;;;;0.70;0.70;;;;;;;-0.86;79.75;96910.22;299417;222;63012;-54
2021/01/08 20:34:16;;;;;;;0.80;0.80;;;;;;;-0.97;80.30;96913.63;299417;241;63009;-53
2021/01/08 20:39:20;;;;;;;0.80;0.80;;;;;;;-0.99;81.55;96915.69;299395;260;63004;-62
2021/01/08 20:44:27;;;;;;;0.80;0.80;;;;;;;-1.01;81.26;96920.41;299439;290;63009;-62
2021/01/08 20:49:31;;;;;;;0.80;0.80;;;;;;;-0.69;78.74;96929.94;299395;227;63005;-52
2021/01/08 20:54:32;;;;;;;0.80;0.80;;;;;;;-1.00;81.17;96927.38;299417;296;63009;-51
2021/01/08 20:59:33;;;;;;;0.70;0.70;;;;;;;-1.00;81.44;96932.69;299395;216;63004;-53
2021/01/08 21:04:35;;;;;;;0.70;0.70;;;;;;;-1.03;81.50;96935.78;299395;199;63009;-53
2021/01/08 21:09:46;;;;;;;0.75;0.75;;;;;;;-1.01;81.59;96933.72;299395;204;63004;-54
2021/01/08 21:14:47;;;;;;;0.80;0.80;;;;;;;-0.88;80.73;96933.62;299417;221;63009;-53
2021/01/08 21:19:48;;;;;;;0.80;0.80;;;;;;;-0.85;80.16;96927.03;299395;213;63005;-64
2021/01/08 21:24:52;;;;;;;0.80;0.80;;;;;;;-0.93;80.39;96941.44;299395;316;63008;-62
2021/01/08 21:29:53;;;;;;;0.80;0.80;;;;;;;-0.86;79.99;96942.19;299395;230;63012;-53
2021/01/08 21:34:54;;;;;;;0.80;0.80;;;;;;;-0.99;81.16;96947.63;299395;203;63009;-53
2021/01/08 21:39:55;;;;;;;0.80;0.80;;;;;;;-0.96;80.73;96941.88;299395;233;63012;-52
2021/01/08 21:44:56;;;;;;;0.77;0.77;;;;;;;-0.89;80.99;96934.66;299395;197;63009;-53
2021/01/08 21:50:01;;;;;;;0.73;0.73;;;;;;;-0.76;79.49;96939.84;299395;250;63005;-52
2021/01/08 21:55:05;;;;;;;0.80;0.80;;;;;;;-0.70;79.82;96938.97;299417;267;63009;-62
2021/01/08 22:00:17;;;;;;;0.70;0.70;;;;;;;-0.75;79.80;96940.69;299417;202;63004;-64
2021/01/08 22:05:18;;;;;;;0.80;0.80;;;;;;;-0.80;80.37;96949.31;299395;219;63009;-52
2021/01/08 22:10:19;;;;;;;0.70;0.70;;;;;;;-0.82;79.83;96948.72;299395;350;63005;-52
2021/01/08 22:15:20;;;;;;;0.80;0.80;;;;;;;-0.80;79.64;96959.16;299396;197;63009;-55
2021/01/08 22:20:21;;;;;;;0.80;0.80;;;;;;;-0.80;79.90;96962.66;299396;295;63005;-62
2021/01/08 22:25:24;;;;;;;0.80;0.80;;;;;;;-0.85;79.68;96965.16;299396;337;63009;-53
2021/01/08 22:30:25;;;;;;;0.80;0.80;;;;;;;-0.93;80.97;96968.06;299396;197;63004;-57
2021/01/08 22:35:26;;;;;;;0.80;0.80;;;;;;;-0.97;81.76;96966.87;299396;315;63009;-53
2021/01/08 22:40:27;;;;;;;0.80;0.80;;;;;;;-0.98;81.59;96965.25;299396;218;63005;-58
2021/01/08 22:45:28;;;;;;;0.80;0.80;;;;;;;-0.91;81.52;96967.87;299396;230;63009;-55
2021/01/08 22:50:30;;;;;;;0.80;0.80;;;;;;;-0.90;81.36;96972.97;299396;231;63005;-58
2021/01/08 22:55:31;;;;;;;0.80;0.80;;;;;;;-0.94;81.56;96971.78;299397;218;63014;-53
2021/01/08 23:00:34;;;;;;;0.80;0.80;;;;;;;-0.93;81.33;96976.06;299397;344;63004;-57
2021/01/08 23:05:37;;;;;;;0.80;0.80;;;;;;;-0.80;81.36;96967.97;299397;217;63009;-55
2021/01/08 23:10:38;;;;;;;0.80;0.80;;;;;;;-0.97;81.92;96972.22;299396;232;63005;-57
2021/01/08 23:15:39;;;;;;;0.70;0.70;;;;;;;-0.97;81.75;96972.22;299396;199;63008;-54
2021/01/08 23:20:40;;;;;;;0.80;0.80;;;;;;;-0.85;80.89;96980.31;299396;211;63004;-56
2021/01/08 23:25:43;;;;;;;0.80;0.80;;;;;;;-0.87;81.50;96982.37;299396;233;63009;-57
2021/01/08 23:30:45;;;;;;;0.80;0.80;;;;;;;-0.81;80.77;96977.00;299378;221;125021;-55
2021/01/08 23:35:47;;;;;;;0.80;0.80;;;;;;;-0.86;81.79;96970.69;299396;245;63009;-54
2021/01/08 23:40:48;;;;;;;0.80;0.80;;;;;;;-0.92;81.84;96968.91;299396;214;63005;-54
2021/01/08 23:45:52;;;;;;;0.80;0.80;;;;;;;-0.75;81.28;96970.81;299396;210;63008;-57
2021/01/08 23:50:56;;;;;;;0.80;0.80;;;;;;;-0.84;81.60;96972.09;299397;198;63004;-55
2021/01/08 23:55:56;;;;;;;0.80;0.80;;;;;;;-0.87;81.44;96972.53;299397;222;63009;-54
